sensor_id;sensor_type;location;lat;lon;timestamp;temperature;humidity
58161;DHT22;49345;47.428;9.892;2022-07-29T00:00:11;16.80;99.90
58161;DHT22;49345;47.428;9.892;2022-07-29T00:02:36;16.80;99.90
58161;DHT22;49345;47.428;9.892;2022-07-29T00:05:03;16.80;99.90
58161;DHT22;49345;47.428;9.892;2022-07-29T00:07:28;16.80;99.90
58161;DHT22;49345;47.428;9.892;2022-07-29T00:09:54;16.80;99.90
58161;DHT22;49345;47.428;9.892;2022-07-29T00:12:20;16.80;99.90
58161;DHT22;49345;47.428;9.892;2022-07-29T00:14:46;16.80;99.90
58161;DHT22;49345;47.428;9.892;2022-07-29T00:17:11;16.80;99.90
58161;DHT22;49345;47.428;9.892;2022-07-29T00:19:37;16.80;99.90
58161;DHT22;49345;47.428;9.892;2022-07-29T00:22:02;16.70;99.90
58161;DHT22;49345;47.428;9.892;2022-07-29T00:24:28;16.70;99.90
58161;DHT22;49345;47.428;9.892;2022-07-29T00:26:53;16.60;99.90
58161;DHT22;49345;47.428;9.892;2022-07-29T00:29:19;16.60;99.90
58161;DHT22;49345;47.428;9.892;2022-07-29T00:31:45;16.60;99.90
58161;DHT22;49345;47.428;9.892;2022-07-29T00:34:10;16.70;99.90
58161;DHT22;49345;47.428;9.892;2022-07-29T00:36:56;16.60;99.90
58161;DHT22;49345;47.428;9.892;2022-07-29T00:39:21;16.50;99.90
58161;DHT22;49345;47.428;9.892;2022-07-29T00:41:47;16.50;99.90
58161;DHT22;49345;47.428;9.892;2022-07-29T00:44:12;16.50;99.90
58161;DHT22;49345;47.428;9.892;2022-07-29T00:46:38;16.40;99.90
58161;DHT22;49345;47.428;9.892;2022-07-29T00:49:03;16.40;99.90
58161;DHT22;49345;47.428;9.892;2022-07-29T00:51:29;16.40;99.90
58161;DHT22;49345;47.428;9.892;2022-07-29T00:53:55;16.30;99.90
58161;DHT22;49345;47.428;9.892;2022-07-29T00:56:21;16.20;99.90
58161;DHT22;49345;47.428;9.892;2022-07-29T00:58:47;16.10;99.90
58161;DHT22;49345;47.428;9.892;2022-07-29T01:01:13;16.10;99.90
58161;DHT22;49345;47.428;9.892;2022-07-29T01:03:38;16.00;99.90
58161;DHT22;49345;47.428;9.892;2022-07-29T01:06:04;16.00;99.90
58161;DHT22;49345;47.428;9.892;2022-07-29T01:08:30;16.00;99.90
58161;DHT22;49345;47.428;9.892;2022-07-29T01:10:56;15.90;99.90
58161;DHT22;49345;47.428;9.892;2022-07-29T01:13:22;15.90;99.90
58161;DHT22;49345;47.428;9.892;2022-07-29T01:15:49;15.90;99.90
58161;DHT22;49345;47.428;9.892;2022-07-29T01:18:18;15.90;99.90
58161;DHT22;49345;47.428;9.892;2022-07-29T01:23:47;15.90;99.90
58161;DHT22;49345;47.428;9.892;2022-07-29T01:43:33;15.60;99.90
58161;DHT22;49345;47.428;9.892;2022-07-29T01:46:02;15.50;99.90
58161;DHT22;49345;47.428;9.892;2022-07-29T01:51:25;15.50;99.90
58161;DHT22;49345;47.428;9.892;2022-07-29T01:53:55;15.50;99.90
58161;DHT22;49345;47.428;9.892;2022-07-29T01:56:24;15.40;99.90
58161;DHT22;49345;47.428;9.892;2022-07-29T01:58:51;15.40;99.90
58161;DHT22;49345;47.428;9.892;2022-07-29T02:01:17;15.40;99.90
58161;DHT22;49345;47.428;9.892;2022-07-29T02:03:43;15.50;99.90
58161;DHT22;49345;47.428;9.892;2022-07-29T02:06:10;15.40;99.90
58161;DHT22;49345;47.428;9.892;2022-07-29T02:08:36;15.30;99.90
58161;DHT22;49345;47.428;9.892;2022-07-29T02:11:03;15.30;99.90
58161;DHT22;49345;47.428;9.892;2022-07-29T02:13:29;15.30;99.90
58161;DHT22;49345;47.428;9.892;2022-07-29T02:15:57;15.30;99.90
58161;DHT22;49345;47.428;9.892;2022-07-29T02:18:23;15.40;99.90
58161;DHT22;49345;47.428;9.892;2022-07-29T02:20:50;15.30;99.90
58161;DHT22;49345;47.428;9.892;2022-07-29T02:23:19;15.20;99.90
58161;DHT22;49345;47.428;9.892;2022-07-29T02:25:44;15.20;99.90
58161;DHT22;49345;47.428;9.892;2022-07-29T02:28:13;15.20;99.90
58161;DHT22;49345;47.428;9.892;2022-07-29T02:30:40;15.20;99.90
58161;DHT22;49345;47.428;9.892;2022-07-29T02:33:07;15.20;99.90
58161;DHT22;49345;47.428;9.892;2022-07-29T02:35:34;15.20;99.90
58161;DHT22;49345;47.428;9.892;2022-07-29T02:38:00;15.20;99.90
58161;DHT22;49345;47.428;9.892;2022-07-29T02:40:52;15.10;99.90
58161;DHT22;49345;47.428;9.892;2022-07-29T02:43:18;15.10;99.90
58161;DHT22;49345;47.428;9.892;2022-07-29T02:45:45;15.10;99.90
58161;DHT22;49345;47.428;9.892;2022-07-29T02:48:13;15.10;99.90
58161;DHT22;49345;47.428;9.892;2022-07-29T02:53:33;15.10;99.90
58161;DHT22;49345;47.428;9.892;2022-07-29T02:55:59;15.00;99.90
58161;DHT22;49345;47.428;9.892;2022-07-29T02:58:27;15.00;99.90
58161;DHT22;49345;47.428;9.892;2022-07-29T03:03:47;14.90;99.90
58161;DHT22;49345;47.428;9.892;2022-07-29T03:06:13;14.90;99.90
58161;DHT22;49345;47.428;9.892;2022-07-29T03:08:40;14.90;99.90
58161;DHT22;49345;47.428;9.892;2022-07-29T03:11:07;14.80;99.90
58161;DHT22;49345;47.428;9.892;2022-07-29T03:13:33;14.80;99.90
58161;DHT22;49345;47.428;9.892;2022-07-29T03:16:00;14.80;99.90
58161;DHT22;49345;47.428;9.892;2022-07-29T03:18:26;14.80;99.90
58161;DHT22;49345;47.428;9.892;2022-07-29T03:20:52;14.70;99.90
58161;DHT22;49345;47.428;9.892;2022-07-29T03:26:19;14.70;99.90
58161;DHT22;49345;47.428;9.892;2022-07-29T03:28:45;14.60;99.90
58161;DHT22;49345;47.428;9.892;2022-07-29T03:31:10;14.70;99.90
58161;DHT22;49345;47.428;9.892;2022-07-29T03:33:36;14.60;99.90
58161;DHT22;49345;47.428;9.892;2022-07-29T03:36:01;14.60;99.90
58161;DHT22;49345;47.428;9.892;2022-07-29T03:38:27;14.60;99.90
58161;DHT22;49345;47.428;9.892;2022-07-29T03:40:56;14.60;99.90
58161;DHT22;49345;47.428;9.892;2022-07-29T03:43:23;14.60;99.90
58161;DHT22;49345;47.428;9.892;2022-07-29T03:45:51;14.60;99.90
58161;DHT22;49345;47.428;9.892;2022-07-29T03:48:19;14.60;99.90
58161;DHT22;49345;47.428;9.892;2022-07-29T03:50:45;14.60;99.90
58161;DHT22;49345;47.428;9.892;2022-07-29T03:53:11;14.60;99.90
58161;DHT22;49345;47.428;9.892;2022-07-29T03:55:39;14.70;99.90
58161;DHT22;49345;47.428;9.892;2022-07-29T03:58:05;14.60;99.90
58161;DHT22;49345;47.428;9.892;2022-07-29T04:00:31;14.70;99.90
58161;DHT22;49345;47.428;9.892;2022-07-29T04:02:58;14.70;99.90
58161;DHT22;49345;47.428;9.892;2022-07-29T04:05:24;14.80;99.90
58161;DHT22;49345;47.428;9.892;2022-07-29T04:07:49;14.80;99.90
58161;DHT22;49345;47.428;9.892;2022-07-29T04:10:15;14.80;99.90
58161;DHT22;49345;47.428;9.892;2022-07-29T04:12:42;14.90;99.90
58161;DHT22;49345;47.428;9.892;2022-07-29T04:15:08;15.00;99.90
58161;DHT22;49345;47.428;9.892;2022-07-29T04:17:34;15.00;99.90
58161;DHT22;49345;47.428;9.892;2022-07-29T04:19:59;15.10;99.90
58161;DHT22;49345;47.428;9.892;2022-07-29T04:22:25;15.10;99.90
58161;DHT22;49345;47.428;9.892;2022-07-29T04:24:51;15.10;99.90
58161;DHT22;49345;47.428;9.892;2022-07-29T04:27:16;15.10;99.90
58161;DHT22;49345;47.428;9.892;2022-07-29T04:29:42;15.10;99.90
58161;DHT22;49345;47.428;9.892;2022-07-29T04:32:08;15.10;99.90
58161;DHT22;49345;47.428;9.892;2022-07-29T04:34:34;15.10;99.90
58161;DHT22;49345;47.428;9.892;2022-07-29T04:36:59;15.10;99.90
58161;DHT22;49345;47.428;9.892;2022-07-29T04:39:25;15.10;99.90
58161;DHT22;49345;47.428;9.892;2022-07-29T04:41:51;15.10;99.90
58161;DHT22;49345;47.428;9.892;2022-07-29T04:44:16;15.10;99.90
58161;DHT22;49345;47.428;9.892;2022-07-29T04:46:42;15.20;99.90
58161;DHT22;49345;47.428;9.892;2022-07-29T04:49:08;15.30;99.90
58161;DHT22;49345;47.428;9.892;2022-07-29T04:51:33;15.40;99.90
58161;DHT22;49345;47.428;9.892;2022-07-29T04:53:59;15.40;99.90
58161;DHT22;49345;47.428;9.892;2022-07-29T04:56:25;15.50;99.90
58161;DHT22;49345;47.428;9.892;2022-07-29T04:58:51;15.60;99.90
58161;DHT22;49345;47.428;9.892;2022-07-29T05:01:16;15.60;99.90
58161;DHT22;49345;47.428;9.892;2022-07-29T05:03:42;15.70;99.90
58161;DHT22;49345;47.428;9.892;2022-07-29T05:06:07;15.70;99.90
58161;DHT22;49345;47.428;9.892;2022-07-29T05:08:33;15.80;99.90
58161;DHT22;49345;47.428;9.892;2022-07-29T05:10:58;15.80;99.90
58161;DHT22;49345;47.428;9.892;2022-07-29T05:13:24;15.90;99.90
58161;DHT22;49345;47.428;9.892;2022-07-29T05:15:49;16.00;99.90
58161;DHT22;49345;47.428;9.892;2022-07-29T05:18:15;16.00;99.90
58161;DHT22;49345;47.428;9.892;2022-07-29T05:20:41;16.10;99.90
58161;DHT22;49345;47.428;9.892;2022-07-29T05:23:06;16.10;99.90
58161;DHT22;49345;47.428;9.892;2022-07-29T05:25:32;16.20;99.90
58161;DHT22;49345;47.428;9.892;2022-07-29T05:27:57;16.30;99.90
58161;DHT22;49345;47.428;9.892;2022-07-29T05:30:23;16.30;99.90
58161;DHT22;49345;47.428;9.892;2022-07-29T05:32:49;16.40;99.90
58161;DHT22;49345;47.428;9.892;2022-07-29T05:35:14;16.30;99.90
58161;DHT22;49345;47.428;9.892;2022-07-29T05:37:40;16.30;99.90
58161;DHT22;49345;47.428;9.892;2022-07-29T05:40:06;16.40;99.90
58161;DHT22;49345;47.428;9.892;2022-07-29T05:42:32;16.50;99.90
58161;DHT22;49345;47.428;9.892;2022-07-29T05:44:57;16.50;99.90
58161;DHT22;49345;47.428;9.892;2022-07-29T05:49:49;16.60;99.90
58161;DHT22;49345;47.428;9.892;2022-07-29T05:52:15;16.80;99.90
58161;DHT22;49345;47.428;9.892;2022-07-29T05:54:41;16.90;99.90
58161;DHT22;49345;47.428;9.892;2022-07-29T05:57:06;17.00;99.90
58161;DHT22;49345;47.428;9.892;2022-07-29T06:02:25;17.10;99.90
58161;DHT22;49345;47.428;9.892;2022-07-29T06:04:51;17.20;99.90
58161;DHT22;49345;47.428;9.892;2022-07-29T06:07:16;17.30;99.90
58161;DHT22;49345;47.428;9.892;2022-07-29T06:09:42;17.30;99.90
58161;DHT22;49345;47.428;9.892;2022-07-29T06:12:08;17.30;99.90
58161;DHT22;49345;47.428;9.892;2022-07-29T06:14:33;17.30;99.90
58161;DHT22;49345;47.428;9.892;2022-07-29T06:16:59;17.30;99.90
58161;DHT22;49345;47.428;9.892;2022-07-29T06:19:24;17.30;99.90
58161;DHT22;49345;47.428;9.892;2022-07-29T06:21:51;17.30;99.90
58161;DHT22;49345;47.428;9.892;2022-07-29T06:24:16;17.40;99.90
58161;DHT22;49345;47.428;9.892;2022-07-29T06:26:42;17.20;99.90
58161;DHT22;49345;47.428;9.892;2022-07-29T06:29:08;17.20;99.90
58161;DHT22;49345;47.428;9.892;2022-07-29T06:31:33;17.10;99.90
58161;DHT22;49345;47.428;9.892;2022-07-29T06:33:59;17.10;99.90
58161;DHT22;49345;47.428;9.892;2022-07-29T06:36:24;17.00;99.90
58161;DHT22;49345;47.428;9.892;2022-07-29T06:38:50;17.00;99.90
58161;DHT22;49345;47.428;9.892;2022-07-29T06:41:16;16.90;99.90
58161;DHT22;49345;47.428;9.892;2022-07-29T06:43:41;16.90;99.90
58161;DHT22;49345;47.428;9.892;2022-07-29T06:46:08;17.00;99.90
58161;DHT22;49345;47.428;9.892;2022-07-29T06:48:34;17.00;99.90
58161;DHT22;49345;47.428;9.892;2022-07-29T06:51:02;17.10;99.90
58161;DHT22;49345;47.428;9.892;2022-07-29T06:53:27;17.10;99.90
58161;DHT22;49345;47.428;9.892;2022-07-29T06:55:53;17.20;99.90
58161;DHT22;49345;47.428;9.892;2022-07-29T06:58:18;17.30;99.90
58161;DHT22;49345;47.428;9.892;2022-07-29T07:00:46;17.50;99.90
58161;DHT22;49345;47.428;9.892;2022-07-29T07:03:11;17.60;99.90
58161;DHT22;49345;47.428;9.892;2022-07-29T07:05:37;17.70;99.90
58161;DHT22;49345;47.428;9.892;2022-07-29T07:08:03;17.90;99.90
58161;DHT22;49345;47.428;9.892;2022-07-29T07:10:29;18.00;99.90
58161;DHT22;49345;47.428;9.892;2022-07-29T07:12:54;18.00;99.90
58161;DHT22;49345;47.428;9.892;2022-07-29T07:15:20;18.10;99.90
58161;DHT22;49345;47.428;9.892;2022-07-29T07:18:13;18.10;99.90
58161;DHT22;49345;47.428;9.892;2022-07-29T07:20:39;18.20;99.90
58161;DHT22;49345;47.428;9.892;2022-07-29T07:23:05;18.40;99.90
58161;DHT22;49345;47.428;9.892;2022-07-29T07:25:30;18.40;99.90
58161;DHT22;49345;47.428;9.892;2022-07-29T07:27:56;18.50;99.90
58161;DHT22;49345;47.428;9.892;2022-07-29T07:30:21;18.60;99.90
58161;DHT22;49345;47.428;9.892;2022-07-29T07:32:47;18.70;99.90
58161;DHT22;49345;47.428;9.892;2022-07-29T07:35:13;18.80;99.90
58161;DHT22;49345;47.428;9.892;2022-07-29T07:37:39;18.70;99.90
58161;DHT22;49345;47.428;9.892;2022-07-29T07:40:37;18.80;99.90
58161;DHT22;49345;47.428;9.892;2022-07-29T07:43:03;19.00;99.90
58161;DHT22;49345;47.428;9.892;2022-07-29T07:45:28;18.90;99.90
58161;DHT22;49345;47.428;9.892;2022-07-29T07:47:54;19.00;99.90
58161;DHT22;49345;47.428;9.892;2022-07-29T07:50:20;19.00;99.90
58161;DHT22;49345;47.428;9.892;2022-07-29T07:52:47;19.30;99.90
58161;DHT22;49345;47.428;9.892;2022-07-29T07:55:13;19.60;99.90
58161;DHT22;49345;47.428;9.892;2022-07-29T07:57:38;19.80;99.90
58161;DHT22;49345;47.428;9.892;2022-07-29T08:00:04;20.10;99.90
58161;DHT22;49345;47.428;9.892;2022-07-29T08:02:30;20.30;99.90
58161;DHT22;49345;47.428;9.892;2022-07-29T08:04:55;20.40;99.90
58161;DHT22;49345;47.428;9.892;2022-07-29T08:07:21;20.50;99.90
58161;DHT22;49345;47.428;9.892;2022-07-29T08:09:46;20.70;99.90
58161;DHT22;49345;47.428;9.892;2022-07-29T08:12:12;20.80;99.90
58161;DHT22;49345;47.428;9.892;2022-07-29T08:14:37;21.00;99.90
58161;DHT22;49345;47.428;9.892;2022-07-29T08:17:03;21.10;99.90
58161;DHT22;49345;47.428;9.892;2022-07-29T08:19:29;21.30;99.90
58161;DHT22;49345;47.428;9.892;2022-07-29T08:21:54;21.40;99.90
58161;DHT22;49345;47.428;9.892;2022-07-29T08:24:21;21.40;99.90
58161;DHT22;49345;47.428;9.892;2022-07-29T08:27:22;21.60;99.90
58161;DHT22;49345;47.428;9.892;2022-07-29T08:29:48;21.70;99.90
58161;DHT22;49345;47.428;9.892;2022-07-29T08:32:13;21.90;99.90
58161;DHT22;49345;47.428;9.892;2022-07-29T08:34:39;22.10;99.90
58161;DHT22;49345;47.428;9.892;2022-07-29T08:37:04;22.00;99.80
58161;DHT22;49345;47.428;9.892;2022-07-29T08:39:30;22.10;98.50
58161;DHT22;49345;47.428;9.892;2022-07-29T08:41:55;22.00;97.70
58161;DHT22;49345;47.428;9.892;2022-07-29T08:44:21;21.90;97.70
58161;DHT22;49345;47.428;9.892;2022-07-29T08:46:47;21.90;97.90
58161;DHT22;49345;47.428;9.892;2022-07-29T08:49:13;21.90;98.30
58161;DHT22;49345;47.428;9.892;2022-07-29T08:51:39;21.90;98.80
58161;DHT22;49345;47.428;9.892;2022-07-29T08:54:05;21.90;98.20
58161;DHT22;49345;47.428;9.892;2022-07-29T08:56:30;21.80;98.40
58161;DHT22;49345;47.428;9.892;2022-07-29T08:58:57;21.80;99.20
58161;DHT22;49345;47.428;9.892;2022-07-29T09:01:24;21.70;99.90
58161;DHT22;49345;47.428;9.892;2022-07-29T09:03:49;21.60;98.60
58161;DHT22;49345;47.428;9.892;2022-07-29T09:06:17;21.40;99.90
58161;DHT22;49345;47.428;9.892;2022-07-29T09:08:44;21.40;99.90
58161;DHT22;49345;47.428;9.892;2022-07-29T09:11:10;21.30;99.90
58161;DHT22;49345;47.428;9.892;2022-07-29T09:13:36;21.00;99.90
58161;DHT22;49345;47.428;9.892;2022-07-29T09:16:02;20.90;99.90
58161;DHT22;49345;47.428;9.892;2022-07-29T09:21:24;20.80;99.90
58161;DHT22;49345;47.428;9.892;2022-07-29T09:27:25;20.60;99.90
58161;DHT22;49345;47.428;9.892;2022-07-29T09:30:30;20.70;99.90
58161;DHT22;49345;47.428;9.892;2022-07-29T09:32:58;20.90;99.90
58161;DHT22;49345;47.428;9.892;2022-07-29T09:35:26;21.00;99.90
58161;DHT22;49345;47.428;9.892;2022-07-29T09:37:52;20.90;99.90
58161;DHT22;49345;47.428;9.892;2022-07-29T09:40:18;20.90;99.90
58161;DHT22;49345;47.428;9.892;2022-07-29T09:42:45;21.00;99.90
58161;DHT22;49345;47.428;9.892;2022-07-29T09:45:11;21.00;99.90
58161;DHT22;49345;47.428;9.892;2022-07-29T09:59:23;21.40;99.90
58161;DHT22;49345;47.428;9.892;2022-07-29T10:01:52;21.50;99.90
58161;DHT22;49345;47.428;9.892;2022-07-29T10:04:18;21.50;99.90
58161;DHT22;49345;47.428;9.892;2022-07-29T10:15:36;21.90;99.90
58161;DHT22;49345;47.428;9.892;2022-07-29T10:18:03;21.90;99.90
58161;DHT22;49345;47.428;9.892;2022-07-29T10:20:29;22.00;99.90
58161;DHT22;49345;47.428;9.892;2022-07-29T10:22:55;22.00;99.90
58161;DHT22;49345;47.428;9.892;2022-07-29T10:25:21;22.20;99.60
58161;DHT22;49345;47.428;9.892;2022-07-29T10:27:47;22.30;99.50
58161;DHT22;49345;47.428;9.892;2022-07-29T10:30:16;22.40;99.90
58161;DHT22;49345;47.428;9.892;2022-07-29T10:44:28;23.20;95.50
58161;DHT22;49345;47.428;9.892;2022-07-29T10:46:54;23.30;96.00
58161;DHT22;49345;47.428;9.892;2022-07-29T10:52:02;23.60;94.90
58161;DHT22;49345;47.428;9.892;2022-07-29T11:06:07;24.00;91.70
58161;DHT22;49345;47.428;9.892;2022-07-29T11:08:33;24.10;91.10
58161;DHT22;49345;47.428;9.892;2022-07-29T11:13:52;24.20;90.40
58161;DHT22;49345;47.428;9.892;2022-07-29T11:16:20;24.20;90.10
58161;DHT22;49345;47.428;9.892;2022-07-29T11:21:44;24.70;87.40
58161;DHT22;49345;47.428;9.892;2022-07-29T11:32:48;25.60;83.10
58161;DHT22;49345;47.428;9.892;2022-07-29T11:35:15;25.60;82.00
58161;DHT22;49345;47.428;9.892;2022-07-29T11:37:42;25.80;83.70
58161;DHT22;49345;47.428;9.892;2022-07-29T11:40:09;25.90;79.20
58161;DHT22;49345;47.428;9.892;2022-07-29T11:51:14;26.30;75.50
58161;DHT22;49345;47.428;9.892;2022-07-29T11:53:40;26.50;71.40
58161;DHT22;49345;47.428;9.892;2022-07-29T11:56:11;26.60;68.80
58161;DHT22;49345;47.428;9.892;2022-07-29T11:58:37;26.80;67.50
58161;DHT22;49345;47.428;9.892;2022-07-29T12:01:04;26.90;69.80
58161;DHT22;49345;47.428;9.892;2022-07-29T12:03:30;26.90;68.40
58161;DHT22;49345;47.428;9.892;2022-07-29T12:05:56;26.80;66.90
58161;DHT22;49345;47.428;9.892;2022-07-29T12:08:22;26.70;67.20
58161;DHT22;49345;47.428;9.892;2022-07-29T12:10:48;26.50;69.70
58161;DHT22;49345;47.428;9.892;2022-07-29T12:13:15;26.40;69.90
58161;DHT22;49345;47.428;9.892;2022-07-29T12:15:41;26.20;69.60
58161;DHT22;49345;47.428;9.892;2022-07-29T12:21:02;25.90;72.70
58161;DHT22;49345;47.428;9.892;2022-07-29T12:23:29;25.80;72.10
58161;DHT22;49345;47.428;9.892;2022-07-29T12:25:55;25.90;73.30
58161;DHT22;49345;47.428;9.892;2022-07-29T12:28:20;25.80;71.80
58161;DHT22;49345;47.428;9.892;2022-07-29T12:33:43;25.70;72.10
58161;DHT22;49345;47.428;9.892;2022-07-29T12:36:17;25.70;71.60
58161;DHT22;49345;47.428;9.892;2022-07-29T12:38:43;25.80;72.10
58161;DHT22;49345;47.428;9.892;2022-07-29T12:41:09;25.90;70.20
58161;DHT22;49345;47.428;9.892;2022-07-29T12:43:35;25.90;70.60
58161;DHT22;49345;47.428;9.892;2022-07-29T12:46:11;25.90;70.00
58161;DHT22;49345;47.428;9.892;2022-07-29T12:48:37;26.10;71.10
58161;DHT22;49345;47.428;9.892;2022-07-29T12:51:04;26.30;70.60
58161;DHT22;49345;47.428;9.892;2022-07-29T12:53:31;26.60;69.70
58161;DHT22;49345;47.428;9.892;2022-07-29T12:55:57;26.70;73.60
58161;DHT22;49345;47.428;9.892;2022-07-29T13:01:18;26.80;70.10
58161;DHT22;49345;47.428;9.892;2022-07-29T13:06:44;26.80;72.50
58161;DHT22;49345;47.428;9.892;2022-07-29T13:11:50;26.80;73.00
58161;DHT22;49345;47.428;9.892;2022-07-29T13:17:16;26.40;73.20
58161;DHT22;49345;47.428;9.892;2022-07-29T13:19:43;26.20;74.90
58161;DHT22;49345;47.428;9.892;2022-07-29T13:22:09;25.90;75.10
58161;DHT22;49345;47.428;9.892;2022-07-29T13:27:29;25.50;76.00
58161;DHT22;49345;47.428;9.892;2022-07-29T13:29:55;25.40;78.00
58161;DHT22;49345;47.428;9.892;2022-07-29T13:32:52;25.20;76.40
58161;DHT22;49345;47.428;9.892;2022-07-29T13:35:18;25.20;76.00
58161;DHT22;49345;47.428;9.892;2022-07-29T13:37:43;25.30;75.50
58161;DHT22;49345;47.428;9.892;2022-07-29T13:40:09;25.40;74.10
58161;DHT22;49345;47.428;9.892;2022-07-29T13:42:36;25.50;73.50
58161;DHT22;49345;47.428;9.892;2022-07-29T13:45:02;25.40;74.00
58161;DHT22;49345;47.428;9.892;2022-07-29T13:47:31;25.50;74.10
58161;DHT22;49345;47.428;9.892;2022-07-29T13:49:57;25.50;72.40
58161;DHT22;49345;47.428;9.892;2022-07-29T13:52:22;25.40;74.10
58161;DHT22;49345;47.428;9.892;2022-07-29T13:54:48;25.20;80.30
58161;DHT22;49345;47.428;9.892;2022-07-29T13:57:14;25.00;72.30
58161;DHT22;49345;47.428;9.892;2022-07-29T13:59:40;25.00;72.00
58161;DHT22;49345;47.428;9.892;2022-07-29T14:02:07;25.00;71.80
58161;DHT22;49345;47.428;9.892;2022-07-29T14:04:33;25.00;72.20
58161;DHT22;49345;47.428;9.892;2022-07-29T14:06:58;24.90;72.20
58161;DHT22;49345;47.428;9.892;2022-07-29T14:09:24;24.80;74.80
58161;DHT22;49345;47.428;9.892;2022-07-29T14:11:49;24.70;76.60
58161;DHT22;49345;47.428;9.892;2022-07-29T14:14:16;24.60;76.20
58161;DHT22;49345;47.428;9.892;2022-07-29T14:16:42;24.50;76.20
58161;DHT22;49345;47.428;9.892;2022-07-29T14:19:07;24.30;73.40
58161;DHT22;49345;47.428;9.892;2022-07-29T14:21:33;24.10;74.30
58161;DHT22;49345;47.428;9.892;2022-07-29T14:23:59;24.00;75.10
58161;DHT22;49345;47.428;9.892;2022-07-29T14:26:25;23.90;74.70
58161;DHT22;49345;47.428;9.892;2022-07-29T14:28:50;23.90;74.90
58161;DHT22;49345;47.428;9.892;2022-07-29T14:31:16;24.00;75.40
58161;DHT22;49345;47.428;9.892;2022-07-29T14:33:42;24.00;75.80
58161;DHT22;49345;47.428;9.892;2022-07-29T14:36:07;24.00;77.30
58161;DHT22;49345;47.428;9.892;2022-07-29T14:38:34;23.90;80.20
58161;DHT22;49345;47.428;9.892;2022-07-29T14:41:00;23.70;80.60
58161;DHT22;49345;47.428;9.892;2022-07-29T14:43:25;23.60;76.10
58161;DHT22;49345;47.428;9.892;2022-07-29T14:45:51;23.50;75.10
58161;DHT22;49345;47.428;9.892;2022-07-29T14:48:17;23.50;76.70
58161;DHT22;49345;47.428;9.892;2022-07-29T14:50:42;23.40;79.50
58161;DHT22;49345;47.428;9.892;2022-07-29T14:53:08;23.30;81.20
58161;DHT22;49345;47.428;9.892;2022-07-29T14:55:33;23.20;83.70
58161;DHT22;49345;47.428;9.892;2022-07-29T14:57:59;23.10;84.60
58161;DHT22;49345;47.428;9.892;2022-07-29T15:00:25;23.00;85.80
58161;DHT22;49345;47.428;9.892;2022-07-29T15:02:51;22.90;87.20
58161;DHT22;49345;47.428;9.892;2022-07-29T15:05:16;22.80;89.40
58161;DHT22;49345;47.428;9.892;2022-07-29T15:07:42;22.70;89.80
58161;DHT22;49345;47.428;9.892;2022-07-29T15:10:08;22.40;92.10
58161;DHT22;49345;47.428;9.892;2022-07-29T15:12:33;22.10;93.30
58161;DHT22;49345;47.428;9.892;2022-07-29T15:14:59;22.00;94.80
58161;DHT22;49345;47.428;9.892;2022-07-29T15:17:25;22.00;95.70
58161;DHT22;49345;47.428;9.892;2022-07-29T15:19:50;21.80;97.40
58161;DHT22;49345;47.428;9.892;2022-07-29T15:22:16;21.60;99.20
58161;DHT22;49345;47.428;9.892;2022-07-29T15:24:41;21.60;99.90
58161;DHT22;49345;47.428;9.892;2022-07-29T15:27:07;21.60;99.90
58161;DHT22;49345;47.428;9.892;2022-07-29T15:32:43;21.00;99.90
58161;DHT22;49345;47.428;9.892;2022-07-29T15:35:09;20.90;99.90
58161;DHT22;49345;47.428;9.892;2022-07-29T15:38:05;20.80;99.90
58161;DHT22;49345;47.428;9.892;2022-07-29T15:40:31;20.60;99.90
58161;DHT22;49345;47.428;9.892;2022-07-29T15:42:56;20.60;99.90
58161;DHT22;49345;47.428;9.892;2022-07-29T15:45:25;20.50;99.90
58161;DHT22;49345;47.428;9.892;2022-07-29T15:47:51;20.50;99.90
58161;DHT22;49345;47.428;9.892;2022-07-29T15:50:17;20.50;99.90
58161;DHT22;49345;47.428;9.892;2022-07-29T15:52:44;20.50;99.90
58161;DHT22;49345;47.428;9.892;2022-07-29T15:55:10;20.40;99.90
58161;DHT22;49345;47.428;9.892;2022-07-29T15:57:35;20.40;99.90
58161;DHT22;49345;47.428;9.892;2022-07-29T16:00:02;20.30;99.90
58161;DHT22;49345;47.428;9.892;2022-07-29T16:02:28;20.20;99.90
58161;DHT22;49345;47.428;9.892;2022-07-29T16:04:53;20.20;99.90
58161;DHT22;49345;47.428;9.892;2022-07-29T16:07:19;20.20;99.90
58161;DHT22;49345;47.428;9.892;2022-07-29T16:09:44;20.30;99.90
58161;DHT22;49345;47.428;9.892;2022-07-29T16:12:10;20.30;99.90
58161;DHT22;49345;47.428;9.892;2022-07-29T16:14:35;20.30;99.90
58161;DHT22;49345;47.428;9.892;2022-07-29T16:17:01;20.20;99.90
58161;DHT22;49345;47.428;9.892;2022-07-29T16:19:28;20.20;99.90
58161;DHT22;49345;47.428;9.892;2022-07-29T16:21:53;20.20;99.90
58161;DHT22;49345;47.428;9.892;2022-07-29T16:24:19;20.10;99.90
58161;DHT22;49345;47.428;9.892;2022-07-29T16:26:45;20.20;99.90
58161;DHT22;49345;47.428;9.892;2022-07-29T16:29:10;20.10;99.90
58161;DHT22;49345;47.428;9.892;2022-07-29T16:31:36;20.10;99.90
58161;DHT22;49345;47.428;9.892;2022-07-29T16:34:01;19.90;99.90
58161;DHT22;49345;47.428;9.892;2022-07-29T16:36:27;19.90;99.90
58161;DHT22;49345;47.428;9.892;2022-07-29T16:38:52;19.90;99.90
58161;DHT22;49345;47.428;9.892;2022-07-29T16:41:18;19.90;99.90
58161;DHT22;49345;47.428;9.892;2022-07-29T16:43:43;19.80;99.90
58161;DHT22;49345;47.428;9.892;2022-07-29T16:46:09;19.80;99.90
58161;DHT22;49345;47.428;9.892;2022-07-29T16:48:35;19.80;99.90
58161;DHT22;49345;47.428;9.892;2022-07-29T16:53:59;19.60;99.90
58161;DHT22;49345;47.428;9.892;2022-07-29T16:56:24;19.60;99.90
58161;DHT22;49345;47.428;9.892;2022-07-29T16:58:50;19.60;99.90
58161;DHT22;49345;47.428;9.892;2022-07-29T17:01:16;19.40;99.90
58161;DHT22;49345;47.428;9.892;2022-07-29T17:03:42;19.30;99.90
58161;DHT22;49345;47.428;9.892;2022-07-29T17:06:37;19.30;99.90
58161;DHT22;49345;47.428;9.892;2022-07-29T17:09:03;19.30;99.90
58161;DHT22;49345;47.428;9.892;2022-07-29T17:11:29;19.30;99.90
58161;DHT22;49345;47.428;9.892;2022-07-29T17:13:55;19.20;99.90
58161;DHT22;49345;47.428;9.892;2022-07-29T17:19:14;19.20;99.90
58161;DHT22;49345;47.428;9.892;2022-07-29T17:21:40;19.30;99.90
58161;DHT22;49345;47.428;9.892;2022-07-29T17:24:05;19.30;99.90
58161;DHT22;49345;47.428;9.892;2022-07-29T17:26:31;19.40;99.90
58161;DHT22;49345;47.428;9.892;2022-07-29T17:28:57;19.40;99.90
58161;DHT22;49345;47.428;9.892;2022-07-29T17:31:22;19.40;99.90
58161;DHT22;49345;47.428;9.892;2022-07-29T17:33:48;19.30;99.90
58161;DHT22;49345;47.428;9.892;2022-07-29T17:36:13;19.30;99.90
58161;DHT22;49345;47.428;9.892;2022-07-29T17:39:12;19.30;99.90
58161;DHT22;49345;47.428;9.892;2022-07-29T17:41:38;19.30;99.90
58161;DHT22;49345;47.428;9.892;2022-07-29T17:44:05;19.20;99.90
58161;DHT22;49345;47.428;9.892;2022-07-29T17:46:31;19.20;99.90
58161;DHT22;49345;47.428;9.892;2022-07-29T17:48:56;19.20;99.90